createdAt,value
2018-06-16T00:03:48.876Z,21.49
2018-06-16T00:07:52.574Z,21.44
2018-06-16T00:11:55.958Z,21.39
2018-06-16T00:15:59.397Z,21.36
2018-06-16T00:20:02.844Z,21.35
2018-06-16T00:24:06.261Z,21.30
2018-06-16T00:28:09.698Z,21.28
2018-06-16T00:32:13.090Z,21.25
2018-06-16T00:36:16.553Z,21.22
2018-06-16T00:40:19.984Z,21.20
2018-06-16T00:44:23.396Z,21.18
2018-06-16T00:48:26.820Z,21.15
2018-06-16T00:52:30.258Z,21.14
2018-06-16T00:56:33.662Z,21.12
2018-06-16T01:00:37.121Z,21.10
2018-06-16T01:04:40.544Z,21.06
2018-06-16T01:08:43.982Z,21.05
2018-06-16T01:12:47.429Z,21.05
2018-06-16T01:16:50.880Z,21.03
2018-06-16T01:20:54.383Z,21.02
2018-06-16T01:24:57.820Z,20.99
2018-06-16T01:29:01.276Z,20.93
2018-06-16T01:33:04.668Z,20.89
2018-06-16T01:37:08.107Z,20.84
2018-06-16T01:41:11.549Z,20.77
2018-06-16T01:45:14.970Z,20.74
2018-06-16T01:49:18.365Z,20.67
2018-06-16T01:53:21.873Z,20.63
2018-06-16T01:57:25.290Z,20.59
2018-06-16T02:01:28.717Z,20.53
2018-06-16T02:05:32.150Z,20.49
2018-06-16T02:09:35.570Z,20.48
2018-06-16T02:13:39.031Z,20.48
2018-06-16T02:17:42.469Z,20.46
2018-06-16T02:21:45.896Z,20.44
2018-06-16T02:25:49.339Z,20.43
2018-06-16T02:29:52.743Z,20.41
2018-06-16T02:33:56.658Z,20.40
2018-06-16T02:38:00.150Z,20.39
2018-06-16T02:42:03.543Z,20.38
2018-06-16T02:46:07.001Z,20.35
2018-06-16T02:50:10.549Z,20.30
2018-06-16T02:54:13.915Z,20.25
2018-06-16T02:58:17.375Z,20.22
2018-06-16T03:02:20.801Z,20.16
2018-06-16T03:06:24.241Z,20.13
2018-06-16T03:10:27.704Z,20.11
2018-06-16T03:14:31.134Z,20.07
2018-06-16T03:18:34.557Z,20.05
2018-06-16T03:22:37.978Z,20.03
2018-06-16T03:26:41.404Z,20.02
2018-06-16T03:30:44.843Z,19.97
2018-06-16T03:34:48.280Z,19.93
2018-06-16T03:38:51.719Z,19.93
2018-06-16T03:42:55.128Z,19.92
2018-06-16T03:46:58.567Z,19.92
2018-06-16T03:51:02.017Z,19.94
2018-06-16T03:55:05.459Z,19.95
2018-06-16T03:59:09.735Z,19.96
2018-06-16T04:03:13.186Z,19.98
2018-06-16T04:07:16.630Z,19.97
2018-06-16T04:11:20.080Z,19.96
2018-06-16T04:15:23.517Z,20.00
2018-06-16T04:19:26.991Z,20.04
2018-06-16T04:23:30.407Z,20.08
2018-06-16T04:27:33.795Z,20.13
2018-06-16T04:31:37.225Z,20.17
2018-06-16T04:35:40.674Z,20.21
2018-06-16T04:39:44.213Z,20.28
2018-06-16T04:43:47.657Z,20.35
2018-06-16T04:47:51.086Z,20.43
2018-06-16T04:51:54.514Z,20.53
2018-06-16T04:55:57.947Z,20.66
2018-06-16T05:00:01.389Z,20.80
2018-06-16T05:04:04.798Z,20.91
2018-06-16T05:08:08.246Z,21.07
2018-06-16T05:12:11.651Z,21.22
2018-06-16T05:16:15.120Z,21.41
2018-06-16T05:20:18.592Z,21.58
2018-06-16T05:24:22.018Z,21.73
2018-06-16T05:28:25.461Z,21.79
2018-06-16T05:32:28.859Z,21.92
2018-06-16T05:36:32.330Z,22.02
2018-06-16T05:40:35.780Z,22.13
2018-06-16T05:44:39.240Z,22.22
2018-06-16T05:48:42.716Z,22.21
2018-06-16T05:52:46.155Z,22.26
2018-06-16T05:56:49.648Z,22.31
2018-06-16T06:00:53.090Z,22.36
2018-06-16T06:04:56.583Z,22.39
2018-06-16T06:09:00.028Z,22.39
2018-06-16T06:13:03.547Z,22.39
2018-06-16T06:17:07.015Z,22.41
2018-06-16T06:21:10.449Z,22.43
2018-06-16T06:25:13.912Z,22.53
2018-06-16T06:29:17.364Z,22.64
2018-06-16T06:33:20.833Z,22.70
2018-06-16T06:37:24.247Z,22.77
2018-06-16T06:41:27.676Z,22.85
2018-06-16T06:45:31.198Z,22.92
2018-06-16T06:49:34.655Z,23.05
2018-06-16T06:53:38.050Z,23.14
2018-06-16T06:57:41.486Z,23.25
2018-06-16T07:01:44.923Z,23.43
2018-06-16T07:05:48.331Z,23.56
2018-06-16T07:09:51.826Z,23.65
2018-06-16T07:13:55.214Z,23.78
2018-06-16T07:17:58.652Z,23.96
2018-06-16T07:22:02.105Z,24.14
2018-06-16T07:26:05.618Z,24.29
2018-06-16T07:30:09.044Z,24.41
2018-06-16T07:34:12.555Z,24.52
2018-06-16T07:38:15.980Z,24.75
2018-06-16T07:42:19.448Z,24.91
2018-06-16T07:46:22.879Z,25.05
2018-06-16T07:50:26.340Z,25.21
2018-06-16T07:54:29.849Z,25.35
2018-06-16T07:58:33.352Z,25.41
2018-06-16T08:02:36.911Z,25.55
2018-06-16T08:06:40.318Z,25.66
2018-06-16T08:10:43.800Z,25.74
2018-06-16T08:14:47.378Z,25.91
2018-06-16T08:18:50.784Z,26.10
2018-06-16T08:22:54.235Z,26.17
2018-06-16T08:26:57.670Z,26.21
2018-06-16T08:31:01.091Z,26.31
2018-06-16T08:35:04.566Z,26.41
2018-06-16T08:39:09.839Z,26.47
2018-06-16T08:43:13.438Z,26.61
2018-06-16T08:47:17.268Z,26.76
2018-06-16T08:51:20.672Z,26.88
2018-06-16T08:55:24.191Z,27.00
2018-06-16T08:59:27.599Z,27.00
2018-06-16T09:03:31.014Z,27.03
2018-06-16T09:07:34.457Z,27.11
2018-06-16T09:11:44.583Z,27.27
2018-06-16T09:15:48.005Z,27.39
2018-06-16T09:19:51.459Z,27.43
2018-06-16T09:23:54.884Z,27.58
2018-06-16T09:27:58.348Z,27.67
2018-06-16T09:32:01.786Z,27.83
2018-06-16T09:36:05.212Z,28.03
2018-06-16T09:40:08.638Z,28.10
2018-06-16T09:44:12.065Z,28.20
2018-06-16T09:48:15.525Z,28.25
2018-06-16T09:52:18.942Z,28.36
2018-06-16T09:56:22.495Z,28.30
2018-06-16T10:00:31.221Z,28.26
2018-06-16T10:04:34.670Z,28.07
2018-06-16T10:08:38.406Z,28.00
2018-06-16T10:12:41.849Z,28.22
2018-06-16T10:16:45.271Z,28.43
2018-06-16T10:20:48.707Z,28.68
2018-06-16T10:24:52.216Z,28.89
2018-06-16T10:28:55.666Z,29.01
2018-06-16T10:32:59.165Z,29.10
2018-06-16T10:37:02.650Z,29.11
2018-06-16T10:41:06.207Z,29.17
2018-06-16T10:45:09.634Z,29.04
2018-06-16T10:49:13.066Z,28.90
2018-06-16T10:53:16.551Z,28.80
2018-06-16T10:57:19.943Z,28.71
2018-06-16T11:01:23.488Z,28.70
2018-06-16T11:05:26.900Z,28.61
2018-06-16T11:09:30.319Z,28.60
2018-06-16T11:13:33.754Z,28.55
2018-06-16T11:17:37.233Z,28.48
2018-06-16T11:21:40.681Z,28.39
2018-06-16T11:25:44.132Z,28.35
2018-06-16T11:29:47.590Z,28.30
2018-06-16T11:33:51.043Z,28.28
2018-06-16T11:37:54.493Z,28.30
2018-06-16T11:41:57.909Z,28.28
2018-06-16T11:46:01.325Z,28.16
2018-06-16T11:50:04.780Z,28.04
2018-06-16T11:54:08.180Z,27.90
2018-06-16T11:58:11.854Z,27.87
2018-06-16T12:02:15.290Z,27.79
2018-06-16T12:06:18.700Z,27.66
2018-06-16T12:10:22.204Z,27.58
2018-06-16T12:14:25.649Z,27.50
2018-06-16T12:18:29.106Z,27.43
2018-06-16T12:22:32.547Z,27.35
2018-06-16T12:26:36.013Z,27.26
2018-06-16T12:30:40.406Z,27.20
2018-06-16T12:34:43.837Z,27.16
2018-06-16T12:38:47.278Z,27.12
2018-06-16T12:42:50.849Z,27.12
2018-06-16T12:46:54.259Z,27.12
2018-06-16T12:50:57.747Z,27.09
2018-06-16T12:55:01.133Z,27.07
2018-06-16T12:59:04.626Z,27.03
2018-06-16T13:03:08.091Z,26.99
2018-06-16T13:07:11.497Z,26.93
2018-06-16T13:11:15.026Z,26.90
2018-06-16T13:15:18.651Z,26.89
2018-06-16T13:19:22.114Z,26.86
2018-06-16T13:23:25.552Z,26.84
2018-06-16T13:27:28.985Z,26.85
2018-06-16T13:31:32.392Z,26.84
2018-06-16T13:35:35.896Z,26.80
2018-06-16T13:39:39.332Z,26.76
2018-06-16T13:43:42.730Z,26.72
2018-06-16T13:47:46.166Z,26.72
2018-06-16T13:51:49.606Z,26.73
2018-06-16T13:55:53.052Z,26.75
2018-06-16T13:59:56.487Z,26.76
2018-06-16T14:03:59.923Z,26.77
2018-06-16T14:08:03.342Z,26.79
2018-06-16T14:12:06.814Z,26.83
2018-06-16T14:16:10.242Z,26.82
2018-06-16T14:20:13.629Z,26.81
2018-06-16T14:24:17.053Z,26.83
2018-06-16T14:28:20.525Z,26.82
2018-06-16T14:32:23.945Z,26.81
2018-06-16T14:36:27.385Z,26.80
2018-06-16T14:40:30.814Z,26.78
2018-06-16T14:44:34.245Z,26.73
2018-06-16T14:48:37.667Z,26.72
2018-06-16T14:52:41.097Z,26.68
2018-06-16T14:56:44.537Z,26.62
2018-06-16T15:00:47.993Z,26.60
2018-06-16T15:04:51.455Z,26.58
2018-06-16T15:08:55.021Z,26.58
2018-06-16T15:12:58.464Z,26.56
2018-06-16T15:17:01.917Z,26.56
2018-06-16T15:21:05.431Z,26.53
2018-06-16T15:25:08.865Z,26.50
2018-06-16T15:29:12.280Z,26.53
2018-06-16T15:33:15.714Z,26.53
2018-06-16T15:37:19.256Z,26.52
2018-06-16T15:41:22.769Z,26.46
2018-06-16T15:45:26.172Z,26.45
2018-06-16T15:49:29.606Z,26.43
2018-06-16T15:53:33.044Z,26.43
2018-06-16T15:57:36.500Z,26.42
2018-06-16T16:01:39.963Z,26.41
2018-06-16T16:05:43.429Z,26.36
2018-06-16T16:09:46.848Z,26.36
2018-06-16T16:13:50.264Z,26.36
2018-06-16T16:17:53.794Z,26.35
2018-06-16T16:21:57.248Z,26.36
2018-06-16T16:26:00.680Z,26.36
2018-06-16T16:30:04.154Z,26.39
2018-06-16T16:34:07.612Z,26.42
2018-06-16T16:38:11.069Z,26.44
2018-06-16T16:42:14.491Z,26.46
2018-06-16T16:46:18.032Z,26.52
2018-06-16T16:50:21.422Z,26.56
2018-06-16T16:54:24.862Z,26.57
2018-06-16T16:58:28.319Z,26.60
2018-06-16T17:02:31.742Z,26.60
2018-06-16T17:06:35.381Z,26.59
2018-06-16T17:10:38.836Z,26.61
2018-06-16T17:14:42.294Z,26.62
2018-06-16T17:18:45.691Z,26.56
2018-06-16T17:22:49.177Z,26.51
2018-06-16T17:26:52.786Z,26.49
2018-06-16T17:30:56.174Z,26.50
2018-06-16T17:34:59.633Z,26.48
2018-06-16T17:39:03.138Z,26.43
2018-06-16T17:43:06.604Z,26.39
2018-06-16T17:47:10.034Z,26.36
2018-06-16T17:51:13.499Z,26.33
2018-06-16T17:55:16.927Z,26.29
2018-06-16T17:59:20.391Z,26.24
2018-06-16T18:03:23.950Z,26.17
2018-06-16T18:07:27.417Z,26.10
2018-06-16T18:11:30.820Z,26.08
2018-06-16T18:15:34.239Z,26.04
2018-06-16T18:19:37.672Z,26.05
2018-06-16T18:23:41.116Z,26.04
2018-06-16T18:27:44.534Z,26.04
2018-06-16T18:31:47.938Z,26.02
2018-06-16T18:35:51.383Z,25.99
2018-06-16T18:39:55.052Z,25.96
2018-06-16T18:43:58.485Z,25.93
2018-06-16T18:48:01.938Z,25.87
2018-06-16T18:52:05.358Z,25.81
2018-06-16T18:56:08.784Z,25.74
2018-06-16T19:00:12.213Z,25.68
2018-06-16T19:04:15.714Z,25.61
2018-06-16T19:08:19.146Z,25.56
2018-06-16T19:12:22.542Z,25.53
2018-06-16T19:16:26.093Z,25.48
2018-06-16T19:20:29.524Z,25.41
2018-06-16T19:24:32.948Z,25.35
2018-06-16T19:28:36.383Z,25.31
2018-06-16T19:32:39.812Z,25.27
2018-06-16T19:36:43.253Z,25.19
2018-06-16T19:40:46.680Z,25.13
2018-06-16T19:44:50.085Z,25.05
2018-06-16T19:48:53.699Z,24.94
2018-06-16T19:52:57.137Z,24.88
2018-06-16T19:57:00.608Z,24.83
2018-06-16T20:01:04.006Z,24.80
2018-06-16T20:05:07.447Z,24.76
2018-06-16T20:09:10.883Z,24.71
2018-06-16T20:13:14.316Z,24.65
2018-06-16T20:17:17.781Z,24.61
2018-06-16T20:21:21.171Z,24.56
2018-06-16T20:25:24.619Z,24.48
2018-06-16T20:29:28.210Z,24.39
2018-06-16T20:33:31.674Z,24.28
2018-06-16T20:37:35.158Z,24.15
2018-06-16T20:41:38.566Z,24.05
2018-06-16T20:45:42.023Z,23.97
2018-06-16T20:49:45.454Z,23.92
2018-06-16T20:53:48.891Z,23.89
2018-06-16T20:57:52.335Z,23.85
2018-06-16T21:01:55.755Z,23.80
2018-06-16T21:05:59.200Z,23.72
2018-06-16T21:10:02.623Z,23.69
2018-06-16T21:14:06.217Z,23.67
2018-06-16T21:18:09.709Z,23.65
2018-06-16T21:22:13.143Z,23.63
2018-06-16T21:26:16.645Z,23.60
2018-06-16T21:30:20.078Z,23.56
2018-06-16T21:34:23.539Z,23.51
2018-06-16T21:38:26.958Z,23.48
2018-06-16T21:42:30.372Z,23.43
2018-06-16T21:46:33.861Z,23.40
2018-06-16T21:50:37.336Z,23.38
2018-06-16T21:54:40.799Z,23.31
2018-06-16T21:58:44.248Z,23.27
2018-06-16T22:02:47.697Z,23.22
2018-06-16T22:06:51.127Z,23.18
2018-06-16T22:10:54.569Z,23.12
2018-06-16T22:14:58.082Z,23.09
2018-06-16T22:19:01.504Z,23.05
2018-06-16T22:23:04.986Z,23.02
2018-06-16T22:27:08.401Z,22.97
2018-06-16T22:31:11.842Z,22.89
2018-06-16T22:35:15.277Z,22.84
2018-06-16T22:39:18.738Z,22.82
2018-06-16T22:43:22.130Z,22.77
2018-06-16T22:47:25.601Z,22.74
2018-06-16T22:51:29.037Z,22.70
2018-06-16T22:55:32.498Z,22.68
2018-06-16T22:59:35.877Z,22.66
2018-06-16T23:03:39.558Z,22.62
2018-06-16T23:07:43.039Z,22.58
2018-06-16T23:11:46.478Z,22.54
2018-06-16T23:15:49.956Z,22.48
2018-06-16T23:19:53.398Z,22.45
2018-06-16T23:23:56.838Z,22.39
2018-06-16T23:28:00.235Z,22.36
2018-06-16T23:32:03.666Z,22.34
2018-06-16T23:36:07.109Z,22.34
2018-06-16T23:40:10.530Z,22.31
2018-06-16T23:44:13.966Z,22.27
2018-06-16T23:48:17.366Z,22.23
2018-06-16T23:52:20.807Z,22.21
2018-06-16T23:56:24.233Z,22.18
